sensor_id;sensor_type;location;lat;lon;timestamp;temperature;humidity
49148;DHT22;41980;45.550;12.070;2022-12-07T00:03:00;4.30;88.30
49148;DHT22;41980;45.550;12.070;2022-12-07T00:09:03;4.30;88.20
49148;DHT22;41980;45.550;12.070;2022-12-07T00:15:05;4.20;88.20
49148;DHT22;41980;45.550;12.070;2022-12-07T00:21:13;4.10;88.30
49148;DHT22;41980;45.550;12.070;2022-12-07T00:27:15;4.10;88.30
49148;DHT22;41980;45.550;12.070;2022-12-07T00:33:17;4.10;88.50
49148;DHT22;41980;45.550;12.070;2022-12-07T00:39:19;4.20;88.50
49148;DHT22;41980;45.550;12.070;2022-12-07T00:45:20;4.20;88.40
49148;DHT22;41980;45.550;12.070;2022-12-07T00:51:23;4.40;88.50
49148;DHT22;41980;45.550;12.070;2022-12-07T00:57:25;4.50;88.20
49148;DHT22;41980;45.550;12.070;2022-12-07T01:03:27;4.50;88.10
49148;DHT22;41980;45.550;12.070;2022-12-07T01:09:29;4.60;88.00
49148;DHT22;41980;45.550;12.070;2022-12-07T01:15:31;4.70;88.20
49148;DHT22;41980;45.550;12.070;2022-12-07T01:21:33;4.80;88.20
49148;DHT22;41980;45.550;12.070;2022-12-07T01:27:37;4.80;88.00
49148;DHT22;41980;45.550;12.070;2022-12-07T01:33:39;4.80;87.80
49148;DHT22;41980;45.550;12.070;2022-12-07T01:39:40;4.80;87.70
49148;DHT22;41980;45.550;12.070;2022-12-07T01:45:42;4.50;87.30
49148;DHT22;41980;45.550;12.070;2022-12-07T01:51:45;4.30;87.50
49148;DHT22;41980;45.550;12.070;2022-12-07T01:57:48;4.20;87.60
49148;DHT22;41980;45.550;12.070;2022-12-07T02:03:51;4.10;87.60
49148;DHT22;41980;45.550;12.070;2022-12-07T02:09:53;4.00;87.60
49148;DHT22;41980;45.550;12.070;2022-12-07T02:15:59;3.90;87.60
49148;DHT22;41980;45.550;12.070;2022-12-07T02:28:27;3.60;87.80
49148;DHT22;41980;45.550;12.070;2022-12-07T02:40:55;3.50;87.80
49148;DHT22;41980;45.550;12.070;2022-12-07T02:47:00;3.50;87.90
49148;DHT22;41980;45.550;12.070;2022-12-07T02:53:04;3.40;87.90
49148;DHT22;41980;45.550;12.070;2022-12-07T03:11:13;3.30;87.90
49148;DHT22;41980;45.550;12.070;2022-12-07T03:17:17;3.20;87.90
49148;DHT22;41980;45.550;12.070;2022-12-07T03:23:19;3.20;87.90
49148;DHT22;41980;45.550;12.070;2022-12-07T03:29:24;3.20;87.80
49148;DHT22;41980;45.550;12.070;2022-12-07T03:35:29;3.20;87.90
49148;DHT22;41980;45.550;12.070;2022-12-07T03:41:33;3.20;87.90
49148;DHT22;41980;45.550;12.070;2022-12-07T03:53:41;3.20;87.80
49148;DHT22;41980;45.550;12.070;2022-12-07T03:59:45;3.10;87.80
49148;DHT22;41980;45.550;12.070;2022-12-07T04:05:47;3.00;87.80
49148;DHT22;41980;45.550;12.070;2022-12-07T04:11:48;3.10;87.90
49148;DHT22;41980;45.550;12.070;2022-12-07T04:17:50;3.00;87.80
49148;DHT22;41980;45.550;12.070;2022-12-07T04:23:52;3.00;87.80
49148;DHT22;41980;45.550;12.070;2022-12-07T04:29:53;3.00;87.80
49148;DHT22;41980;45.550;12.070;2022-12-07T04:35:56;3.00;87.80
49148;DHT22;41980;45.550;12.070;2022-12-07T04:41:58;2.90;87.80
49148;DHT22;41980;45.550;12.070;2022-12-07T04:48:00;2.80;87.80
49148;DHT22;41980;45.550;12.070;2022-12-07T04:54:02;2.80;87.80
49148;DHT22;41980;45.550;12.070;2022-12-07T05:00:04;2.80;87.80
49148;DHT22;41980;45.550;12.070;2022-12-07T05:06:06;2.80;87.90
49148;DHT22;41980;45.550;12.070;2022-12-07T05:12:08;2.80;87.90
49148;DHT22;41980;45.550;12.070;2022-12-07T05:18:10;2.80;87.80
49148;DHT22;41980;45.550;12.070;2022-12-07T05:24:14;2.80;87.70
49148;DHT22;41980;45.550;12.070;2022-12-07T05:30:16;2.80;87.70
49148;DHT22;41980;45.550;12.070;2022-12-07T05:36:18;2.70;87.80
49148;DHT22;41980;45.550;12.070;2022-12-07T05:42:19;2.70;87.80
49148;DHT22;41980;45.550;12.070;2022-12-07T05:48:23;2.70;87.80
49148;DHT22;41980;45.550;12.070;2022-12-07T05:54:24;2.70;87.80
49148;DHT22;41980;45.550;12.070;2022-12-07T06:00:26;2.80;87.80
49148;DHT22;41980;45.550;12.070;2022-12-07T06:06:28;2.80;87.80
49148;DHT22;41980;45.550;12.070;2022-12-07T06:12:29;2.80;87.70
49148;DHT22;41980;45.550;12.070;2022-12-07T06:18:41;2.80;87.70
49148;DHT22;41980;45.550;12.070;2022-12-07T06:24:42;2.80;87.60
49148;DHT22;41980;45.550;12.070;2022-12-07T06:30:44;2.80;87.50
49148;DHT22;41980;45.550;12.070;2022-12-07T06:36:46;2.90;87.50
49148;DHT22;41980;45.550;12.070;2022-12-07T06:42:52;2.90;87.40
49148;DHT22;41980;45.550;12.070;2022-12-07T06:48:54;2.90;87.60
49148;DHT22;41980;45.550;12.070;2022-12-07T06:54:57;3.00;87.50
49148;DHT22;41980;45.550;12.070;2022-12-07T07:01:00;3.00;87.50
49148;DHT22;41980;45.550;12.070;2022-12-07T07:07:02;3.10;87.50
49148;DHT22;41980;45.550;12.070;2022-12-07T07:13:04;3.20;87.40
49148;DHT22;41980;45.550;12.070;2022-12-07T07:19:05;3.30;87.40
49148;DHT22;41980;45.550;12.070;2022-12-07T07:25:08;3.30;87.20
49148;DHT22;41980;45.550;12.070;2022-12-07T07:31:09;3.30;87.20
49148;DHT22;41980;45.550;12.070;2022-12-07T07:37:11;3.40;87.10
49148;DHT22;41980;45.550;12.070;2022-12-07T07:43:14;3.50;87.20
49148;DHT22;41980;45.550;12.070;2022-12-07T07:49:15;3.50;87.20
49148;DHT22;41980;45.550;12.070;2022-12-07T07:55:17;3.60;87.20
49148;DHT22;41980;45.550;12.070;2022-12-07T08:01:20;3.60;87.30
49148;DHT22;41980;45.550;12.070;2022-12-07T08:07:21;3.70;87.40
49148;DHT22;41980;45.550;12.070;2022-12-07T08:13:23;3.80;87.40
49148;DHT22;41980;45.550;12.070;2022-12-07T08:19:25;3.80;87.40
49148;DHT22;41980;45.550;12.070;2022-12-07T08:25:27;3.80;87.40
49148;DHT22;41980;45.550;12.070;2022-12-07T08:31:29;3.90;87.50
49148;DHT22;41980;45.550;12.070;2022-12-07T08:37:32;4.10;87.40
49148;DHT22;41980;45.550;12.070;2022-12-07T08:43:34;4.30;87.40
49148;DHT22;41980;45.550;12.070;2022-12-07T08:49:45;4.50;87.20
49148;DHT22;41980;45.550;12.070;2022-12-07T08:55:49;4.60;87.10
49148;DHT22;41980;45.550;12.070;2022-12-07T09:01:52;4.80;86.90
49148;DHT22;41980;45.550;12.070;2022-12-07T09:07:55;4.90;86.70
49148;DHT22;41980;45.550;12.070;2022-12-07T09:13:58;4.90;86.70
49148;DHT22;41980;45.550;12.070;2022-12-07T09:20:00;5.00;86.70
49148;DHT22;41980;45.550;12.070;2022-12-07T09:26:03;5.20;86.60
49148;DHT22;41980;45.550;12.070;2022-12-07T09:32:06;5.30;86.50
49148;DHT22;41980;45.550;12.070;2022-12-07T09:38:08;5.50;86.50
49148;DHT22;41980;45.550;12.070;2022-12-07T09:44:11;5.70;86.30
49148;DHT22;41980;45.550;12.070;2022-12-07T09:50:16;5.80;86.10
49148;DHT22;41980;45.550;12.070;2022-12-07T09:56:18;6.00;86.00
49148;DHT22;41980;45.550;12.070;2022-12-07T10:02:25;6.10;85.80
49148;DHT22;41980;45.550;12.070;2022-12-07T10:08:29;6.20;85.80
49148;DHT22;41980;45.550;12.070;2022-12-07T10:14:33;6.30;85.80
49148;DHT22;41980;45.550;12.070;2022-12-07T10:20:37;6.50;85.70
49148;DHT22;41980;45.550;12.070;2022-12-07T10:32:49;6.70;85.40
49148;DHT22;41980;45.550;12.070;2022-12-07T10:38:53;6.90;85.40
49148;DHT22;41980;45.550;12.070;2022-12-07T11:03:37;7.80;84.60
49148;DHT22;41980;45.550;12.070;2022-12-07T11:15:53;8.50;83.70
49148;DHT22;41980;45.550;12.070;2022-12-07T11:22:26;8.60;83.60
49148;DHT22;41980;45.550;12.070;2022-12-07T11:40:39;8.60;83.40
49148;DHT22;41980;45.550;12.070;2022-12-07T11:52:48;8.60;80.10
49148;DHT22;41980;45.550;12.070;2022-12-07T12:23:48;8.90;81.90
49148;DHT22;41980;45.550;12.070;2022-12-07T12:29:53;8.90;82.60
49148;DHT22;41980;45.550;12.070;2022-12-07T12:42:20;8.80;82.00
49148;DHT22;41980;45.550;12.070;2022-12-07T12:54:29;9.00;78.80
49148;DHT22;41980;45.550;12.070;2022-12-07T13:00:32;8.90;79.80
49148;DHT22;41980;45.550;12.070;2022-12-07T13:06:35;8.90;81.60
49148;DHT22;41980;45.550;12.070;2022-12-07T13:12:39;8.90;81.50
49148;DHT22;41980;45.550;12.070;2022-12-07T13:18:41;8.90;80.90
49148;DHT22;41980;45.550;12.070;2022-12-07T13:24:43;8.90;81.90
49148;DHT22;41980;45.550;12.070;2022-12-07T13:30:46;8.90;80.40
49148;DHT22;41980;45.550;12.070;2022-12-07T13:36:49;8.90;82.00
49148;DHT22;41980;45.550;12.070;2022-12-07T13:49:16;8.80;81.40
49148;DHT22;41980;45.550;12.070;2022-12-07T13:55:19;8.80;81.90
49148;DHT22;41980;45.550;12.070;2022-12-07T14:01:21;8.80;81.50
49148;DHT22;41980;45.550;12.070;2022-12-07T14:07:24;8.80;80.70
49148;DHT22;41980;45.550;12.070;2022-12-07T14:13:30;8.90;82.70
49148;DHT22;41980;45.550;12.070;2022-12-07T14:25:51;8.80;81.60
49148;DHT22;41980;45.550;12.070;2022-12-07T14:31:54;8.90;80.60
49148;DHT22;41980;45.550;12.070;2022-12-07T14:37:56;8.90;81.20
49148;DHT22;41980;45.550;12.070;2022-12-07T14:43:58;8.80;81.80
49148;DHT22;41980;45.550;12.070;2022-12-07T14:50:00;8.60;82.10
49148;DHT22;41980;45.550;12.070;2022-12-07T14:56:03;8.50;82.80
49148;DHT22;41980;45.550;12.070;2022-12-07T15:02:09;8.50;82.60
49148;DHT22;41980;45.550;12.070;2022-12-07T15:08:12;8.40;82.70
49148;DHT22;41980;45.550;12.070;2022-12-07T15:14:14;8.20;83.00
49148;DHT22;41980;45.550;12.070;2022-12-07T15:20:16;8.00;83.20
49148;DHT22;41980;45.550;12.070;2022-12-07T15:26:18;7.90;83.40
49148;DHT22;41980;45.550;12.070;2022-12-07T15:32:20;7.70;83.60
49148;DHT22;41980;45.550;12.070;2022-12-07T15:38:22;7.50;83.80
49148;DHT22;41980;45.550;12.070;2022-12-07T15:44:24;7.40;84.00
49148;DHT22;41980;45.550;12.070;2022-12-07T15:50:41;7.10;84.20
49148;DHT22;41980;45.550;12.070;2022-12-07T15:56:46;7.10;84.40
49148;DHT22;41980;45.550;12.070;2022-12-07T16:02:47;7.00;84.40
49148;DHT22;41980;45.550;12.070;2022-12-07T16:08:49;6.80;84.60
49148;DHT22;41980;45.550;12.070;2022-12-07T16:14:51;6.70;84.60
49148;DHT22;41980;45.550;12.070;2022-12-07T16:20:53;6.60;84.70
49148;DHT22;41980;45.550;12.070;2022-12-07T16:26:55;6.50;84.80
49148;DHT22;41980;45.550;12.070;2022-12-07T16:32:57;6.50;84.90
49148;DHT22;41980;45.550;12.070;2022-12-07T16:38:59;6.40;85.00
49148;DHT22;41980;45.550;12.070;2022-12-07T16:45:02;6.30;85.00
49148;DHT22;41980;45.550;12.070;2022-12-07T16:51:05;6.20;85.10
49148;DHT22;41980;45.550;12.070;2022-12-07T16:57:08;6.20;85.20
49148;DHT22;41980;45.550;12.070;2022-12-07T17:03:09;6.20;85.40
49148;DHT22;41980;45.550;12.070;2022-12-07T17:09:12;6.10;85.40
49148;DHT22;41980;45.550;12.070;2022-12-07T17:15:13;6.10;85.30
49148;DHT22;41980;45.550;12.070;2022-12-07T17:21:18;6.10;85.30
49148;DHT22;41980;45.550;12.070;2022-12-07T17:27:20;6.10;85.30
49148;DHT22;41980;45.550;12.070;2022-12-07T17:33:22;6.00;85.20
49148;DHT22;41980;45.550;12.070;2022-12-07T17:39:24;5.90;85.40
49148;DHT22;41980;45.550;12.070;2022-12-07T17:45:26;5.90;85.60
49148;DHT22;41980;45.550;12.070;2022-12-07T17:51:28;6.00;85.50
49148;DHT22;41980;45.550;12.070;2022-12-07T17:57:46;5.90;85.40
49148;DHT22;41980;45.550;12.070;2022-12-07T18:03:47;5.90;85.50
49148;DHT22;41980;45.550;12.070;2022-12-07T18:09:49;5.90;85.40
49148;DHT22;41980;45.550;12.070;2022-12-07T18:15:56;5.70;85.50
49148;DHT22;41980;45.550;12.070;2022-12-07T18:21:58;5.70;85.70
49148;DHT22;41980;45.550;12.070;2022-12-07T18:28:00;5.60;85.60
49148;DHT22;41980;45.550;12.070;2022-12-07T18:34:03;5.60;85.70
49148;DHT22;41980;45.550;12.070;2022-12-07T18:40:05;5.50;85.80
49148;DHT22;41980;45.550;12.070;2022-12-07T18:46:08;5.50;85.70
49148;DHT22;41980;45.550;12.070;2022-12-07T18:52:10;5.40;85.70
49148;DHT22;41980;45.550;12.070;2022-12-07T18:58:12;5.40;85.80
49148;DHT22;41980;45.550;12.070;2022-12-07T19:04:14;5.40;85.90
49148;DHT22;41980;45.550;12.070;2022-12-07T19:10:16;5.30;85.90
49148;DHT22;41980;45.550;12.070;2022-12-07T19:16:19;5.30;86.00
49148;DHT22;41980;45.550;12.070;2022-12-07T19:22:21;5.30;85.90
49148;DHT22;41980;45.550;12.070;2022-12-07T19:28:23;5.20;85.90
49148;DHT22;41980;45.550;12.070;2022-12-07T19:34:25;5.20;85.90
49148;DHT22;41980;45.550;12.070;2022-12-07T19:40:27;5.10;85.90
49148;DHT22;41980;45.550;12.070;2022-12-07T19:46:30;5.10;86.00
49148;DHT22;41980;45.550;12.070;2022-12-07T19:52:32;5.00;86.00
49148;DHT22;41980;45.550;12.070;2022-12-07T19:58:33;4.90;86.10
49148;DHT22;41980;45.550;12.070;2022-12-07T20:04:35;4.90;86.10
49148;DHT22;41980;45.550;12.070;2022-12-07T20:10:38;4.80;86.30
49148;DHT22;41980;45.550;12.070;2022-12-07T20:16:40;4.80;86.20
49148;DHT22;41980;45.550;12.070;2022-12-07T20:22:44;4.80;86.10
49148;DHT22;41980;45.550;12.070;2022-12-07T20:28:46;4.80;85.90
49148;DHT22;41980;45.550;12.070;2022-12-07T20:34:48;4.70;86.00
49148;DHT22;41980;45.550;12.070;2022-12-07T20:40:51;4.70;86.00
49148;DHT22;41980;45.550;12.070;2022-12-07T20:46:53;4.60;86.00
49148;DHT22;41980;45.550;12.070;2022-12-07T20:52:55;4.60;86.10
49148;DHT22;41980;45.550;12.070;2022-12-07T20:58:57;4.60;86.10
49148;DHT22;41980;45.550;12.070;2022-12-07T21:04:59;4.60;86.10
49148;DHT22;41980;45.550;12.070;2022-12-07T21:11:05;4.50;86.00
49148;DHT22;41980;45.550;12.070;2022-12-07T21:17:07;4.60;86.00
49148;DHT22;41980;45.550;12.070;2022-12-07T21:23:09;4.50;85.90
49148;DHT22;41980;45.550;12.070;2022-12-07T21:29:10;4.50;86.00
49148;DHT22;41980;45.550;12.070;2022-12-07T21:35:12;4.50;86.00
49148;DHT22;41980;45.550;12.070;2022-12-07T21:41:18;4.50;85.90
49148;DHT22;41980;45.550;12.070;2022-12-07T21:47:20;4.50;86.00
49148;DHT22;41980;45.550;12.070;2022-12-07T21:53:22;4.40;86.00
49148;DHT22;41980;45.550;12.070;2022-12-07T21:59:24;4.40;86.10
49148;DHT22;41980;45.550;12.070;2022-12-07T22:05:26;4.30;86.10
49148;DHT22;41980;45.550;12.070;2022-12-07T22:11:28;4.40;86.10
49148;DHT22;41980;45.550;12.070;2022-12-07T22:17:29;4.40;86.10
49148;DHT22;41980;45.550;12.070;2022-12-07T22:23:31;4.30;86.10
49148;DHT22;41980;45.550;12.070;2022-12-07T22:29:33;4.30;86.10
49148;DHT22;41980;45.550;12.070;2022-12-07T22:35:35;4.20;86.20
49148;DHT22;41980;45.550;12.070;2022-12-07T22:41:37;4.30;86.20
49148;DHT22;41980;45.550;12.070;2022-12-07T22:47:38;4.40;86.20
49148;DHT22;41980;45.550;12.070;2022-12-07T22:53:41;4.50;86.10
49148;DHT22;41980;45.550;12.070;2022-12-07T22:59:42;4.50;86.00
49148;DHT22;41980;45.550;12.070;2022-12-07T23:05:45;4.40;86.10
49148;DHT22;41980;45.550;12.070;2022-12-07T23:11:47;4.40;86.10
49148;DHT22;41980;45.550;12.070;2022-12-07T23:18:05;4.30;86.00
49148;DHT22;41980;45.550;12.070;2022-12-07T23:24:07;4.30;86.00
49148;DHT22;41980;45.550;12.070;2022-12-07T23:30:09;4.40;85.70
49148;DHT22;41980;45.550;12.070;2022-12-07T23:42:14;4.40;85.90
49148;DHT22;41980;45.550;12.070;2022-12-07T23:48:15;4.40;85.60
49148;DHT22;41980;45.550;12.070;2022-12-07T23:54:17;4.40;85.70
